EGPH Airport Information

Runway Information
Runway 06 Length 8400 ft width 150 ft
Elevation 110 ft Threshold 700 ft Heading 59
Runway 24 Length 8400 ft Width 150 ft
Elevation 100 ft Threshold 700 ft Heading 239
Runway 08 Length 2621 ft width 150 ft
Elevation 100 ft Threshold 0 ft Heading 70
Runway 26 Length 2621 ft Width 150 ft
Elevation 110 ft Threshold 0 ft Heading 250
Runway 12 Length 5730 ft width 150 ft
Elevation 99 ft Threshold 0 ft Heading 119
Runway 30 Length 5730 ft Width 150 ft
Elevation 134 ft Threshold 204 ft Heading 299
Airport Frequencies
Type APP Name APP Frequency 121.2 MHZ
Type ATIS Name ATIS Frequency 131.35 MHZ
Type GND Name GND Frequency 121.75 MHZ
Type TWR Name TWR Frequency 118.7 MHZ
Airport Navaids
Type NDB Name Edinburgh Frequency 341 KHZ
Type NDB Name Edinburgh Frequency 368 KHZ
Airport Weather Information & NOTAM
ADDS - METARS form results

(1835 UTC 17 October 2018)
Data provider http://aviationweather.gov/metar/data/
 
METAR text: EGPH 171820Z 25005KT CAVOK 06/04 Q1023
Conditions at: EGPH (EDINBURGH AIRPOR, GB) observed 1820 UTC 17 October 2018
Temperature: 6.0°C (43°F)
Dewpoint: 4.0°C (39°F) [RH = 87%]
Pressure (altimeter): 30.21 inches Hg (1023.0 mb)
Winds: from the WSW (250 degrees) at 6 MPH (5 knots; 2.6 m/s)
Visibility: 6 or more miles (10+ km)
Ceiling: ceiling and visibility are OK
Clouds: unknown
Weather: no significant weather observed at this time

METAR text: EGPH 171750Z 25006KT 9999 FEW035 07/04 Q1022
Conditions at: EGPH (EDINBURGH AIRPOR, GB) observed 1750 UTC 17 October 2018
Temperature: 7.0°C (45°F)
Dewpoint: 4.0°C (39°F) [RH = 81%]
Pressure (altimeter): 30.18 inches Hg (1022.0 mb)
Winds: from the WSW (250 degrees) at 7 MPH (6 knots; 3.1 m/s)
Visibility: 6 or more miles (10+ km)
Ceiling: at least 12,000 feet AGL
Clouds: few clouds at 3500 feet AGL
Weather: no significant weather observed at this time

Forecast for: EGPH (EDINBURGH AIRPOR, GB)
Text: TAF EGPH 171654Z 1718/1818 27006KT 9999 FEW035
Forecast period: 1800 UTC 17 October 2018 to 1800 UTC 18 October 2018
Forecast type: FROM: standard forecast or significant change
Winds: from the W (270 degrees) at 7 MPH (6 knots; 3.1 m/s)
Visibility: 6 or more miles 10+ km)
Ceiling: at least 12,000 feet AGL
Clouds: few clouds at 3500 feet AGL
Weather: no significant weather forecast for this period
Text: PROB30 1802/1809 4000 BR
Forecast period: 0200 to 0900 UTC 18 October 2018
Forecast type: PROBABLE: 30 percent likelihood of the following during this time
Visibility: 2.49 miles (4.01 km)
Ceiling: unknown
Clouds: missing
Weather: BR  (mist)